Nearby METAR Reports

 

LGKZ - Kozani (civ/Army, Greece
Distance from station: ΝΔ 41km
Ενημερώθηκε: 27/02/2024 07:50
Σχεδόν νεφελώδης
Σχεδόν νεφελώδης
 Ανεμος από calm
Ανεμος: Απνοια
Θερμοκρασία: 7°C
Σημείο Δρόσου: 6°C
Υγρασία: 93%
Βαρόμετρο: 1017 hPa
Clouds: Σχεδόν νεφελώδης
Visibility: 10 km
Cloud details: Μερικώς νεφελώδης 610 m
Σχεδόν νεφελώδης 2134 m
2024/02/27 05:50 LGKZ 270550Z 00000KT 9999 SCT020 BKN070 07/06 Q1017
LGTS - Thessaloniki/Mik, Greece
Distance from station: Α 64km
Ενημερώθηκε: 27/02/2024 07:50
Mist, Few clouds
Mist, Few clouds
 Ανεμος από ΑΝΑ
Ανεμος: ΑΝΑ 9 km/h
Θερμοκρασία: 8°C
Wind Chill: 6°C
Σημείο Δρόσου: 8°C
Υγρασία: 100%
Βαρόμετρο: 1017 hPa
Περίληψη: Mist
Clouds: Few Clouds
Visibility: 8 km
Cloud details: Few Clouds 91 m
2024/02/27 05:50 LGTS 270550Z 11005KT 8000 3000E BR FEW003 08/08 Q1017 NOSIG